Saint-Jean-De-Matha, Canada
Current Conditions -  °F | °C
As of 12:00 AM on Saturday 22 Nov 2014 (Local Time) from CYRQ Reporting Station
Clear Clear  
Wind Chill:   Ceiling: Unl
Heat Index: 14°   Visibility: 9mi
Dew Point:   Wind: 9mph
Humidity: 67%   Direction: 240°WSW
Pressure: 30.28"   Gusts: NA
Location:  46.22°N, 73.53°W
Report Text: CYRQ 220500Z AUTO 24008KT 9SM CLR M10/M15 A3028 RMK SLP257
Loading
Personal Weather Stations






























Interactive Weather Map New forecast layout! Learn more

10-Day Weather Forecast

Advertisements
Track Severe Weather on mobile